Time;durP1;ratioP1;P1;durP2;ratioP2;P2;SDS_P1;SDS_P2;PMS_P1;PMS_P2;Temp;Humidity;BMP_temperature;BMP_pressure;BME280_temperature;BME280_humidity;BME280_pressure;Samples;Min_cycle;Max_cycle;Signal;HPM_P1;HPM_P2
2021/07/22 00:00:25;;;;;;;28.90;26.30;;;;;;;16.79;nan;99551.44;2073323;28;20246;-74
2021/07/22 00:01:26;;;;;;;29.27;26.23;;;;;;;16.79;nan;99544.13;2073597;28;20530;-74
2021/07/22 00:02:29;;;;;;;29.10;26.10;;;;;;;16.79;nan;99546.84;2073611;28;20585;-73
2021/07/22 00:03:32;;;;;;;28.53;25.70;;;;;;;16.80;nan;99548.41;2073369;28;20807;-73
2021/07/22 00:04:33;;;;;;;27.97;25.37;;;;;;;16.80;nan;99548.41;2073553;28;20877;-73
2021/07/22 00:05:34;;;;;;;29.30;26.20;;;;;;;16.78;nan;99547.94;2064736;28;20460;-72
2021/07/22 00:06:35;;;;;;;30.57;27.40;;;;;;;16.79;nan;99548.75;2064699;28;20661;-73
2021/07/22 00:07:37;;;;;;;28.47;25.57;;;;;;;16.79;nan;99554.91;2073482;28;20478;-75
2021/07/22 00:08:37;;;;;;;28.40;26.00;;;;;;;16.81;nan;99551.91;2073052;28;20254;-73
2021/07/22 00:09:39;;;;;;;28.47;25.93;;;;;;;16.78;nan;99542.56;2072233;28;20514;-73
2021/07/22 00:10:40;;;;;;;29.33;26.27;;;;;;;16.77;nan;99546.38;2072824;28;20220;-73
2021/07/22 00:11:45;;;;;;;29.00;26.15;;;;;;;16.78;nan;99553.34;2064579;28;20470;-73
2021/07/22 00:12:45;;;;;;;28.37;25.57;;;;;;;16.78;nan;99550.66;2065193;28;20703;-73
2021/07/22 00:13:47;;;;;;;29.67;26.90;;;;;;;16.75;nan;99548.59;2073497;28;20525;-73
2021/07/22 00:14:48;;;;;;;28.52;26.02;;;;;;;16.79;nan;99554.13;2073334;28;20224;-73
2021/07/22 00:15:49;;;;;;;31.07;27.80;;;;;;;16.78;nan;99555.25;2073418;28;20220;-73
2021/07/22 00:16:50;;;;;;;28.83;25.80;;;;;;;16.76;nan;99552.84;2073405;28;20235;-73
2021/07/22 00:17:53;;;;;;;28.13;25.50;;;;;;;16.74;nan;99554.31;2073338;28;20228;-73
2021/07/22 00:18:53;;;;;;;28.50;25.70;;;;;;;16.73;nan;99552.72;2073001;28;20607;-73
2021/07/22 00:19:55;;;;;;;27.10;24.60;;;;;;;16.72;nan;99549.25;2073304;28;20463;-73
2021/07/22 00:20:55;;;;;;;28.38;25.48;;;;;;;16.73;nan;99553.50;2072673;28;20350;-73
2021/07/22 00:21:58;;;;;;;28.13;25.60;;;;;;;16.73;nan;99555.41;2072858;28;20706;-73
2021/07/22 00:22:58;;;;;;;28.93;25.90;;;;;;;16.74;nan;99547.00;2071744;28;20231;-73
2021/07/22 00:24:00;;;;;;;29.67;25.00;;;;;;;16.71;nan;99553.06;2072764;28;21017;-73
2021/07/22 00:25:01;;;;;;;28.27;25.60;;;;;;;16.71;nan;99550.34;2073403;28;20243;-73
2021/07/22 00:26:03;;;;;;;27.27;24.67;;;;;;;16.67;nan;99549.38;2073399;28;20235;-73
2021/07/22 00:27:04;;;;;;;26.87;24.50;;;;;;;16.69;nan;99549.91;2073361;28;20228;-73
2021/07/22 00:28:06;;;;;;;26.87;24.47;;;;;;;16.66;nan;99540.50;2073391;28;20522;-73
2021/07/22 00:29:06;;;;;;;27.20;24.35;;;;;;;16.66;nan;99545.09;2073184;28;20235;-73
2021/07/22 00:30:08;;;;;;;28.57;24.07;;;;;;;16.66;nan;99548.59;2063967;28;20243;-73
2021/07/22 00:31:09;;;;;;;26.52;24.27;;;;;;;16.67;nan;99546.69;2056514;28;20724;-74
2021/07/22 00:32:11;;;;;;;27.63;25.07;;;;;;;16.67;nan;99547.47;2064601;28;20593;-73
2021/07/22 00:33:15;;;;;;;27.47;24.70;;;;;;;16.64;nan;99542.75;2073193;28;20232;-73
2021/07/22 00:34:17;;;;;;;26.65;23.95;;;;;;;16.64;nan;99545.44;2064115;28;20463;-73
2021/07/22 00:35:17;;;;;;;26.40;23.80;;;;;;;16.64;nan;99542.75;2064644;28;20225;-73
2021/07/22 00:36:19;;;;;;;27.87;24.13;;;;;;;16.63;nan;99545.78;2073123;28;20307;-73
2021/07/22 00:37:20;;;;;;;29.42;24.55;;;;;;;16.63;nan;99543.06;2072158;28;20225;-73
2021/07/22 00:38:21;;;;;;;26.90;24.20;;;;;;;16.61;nan;99543.41;2072289;28;20216;-73
2021/07/22 00:39:22;;;;;;;26.03;23.77;;;;;;;16.61;nan;99537.22;2072887;28;20228;-73
2021/07/22 00:40:27;;;;;;;26.55;24.08;;;;;;;16.62;nan;99541.50;2064094;28;20464;-73
2021/07/22 00:41:28;;;;;;;27.38;24.60;;;;;;;16.62;nan;99534.22;2064578;28;20223;-73
2021/07/22 00:42:59;;;;;;;27.87;24.87;;;;;;;16.61;nan;99535.31;2064434;28;20255;-73
2021/07/22 00:44:03;;;;;;;27.50;24.73;;;;;;;16.61;nan;99534.53;2059725;28;20555;-73
2021/07/22 00:45:06;;;;;;;25.30;23.13;;;;;;;16.61;nan;99534.53;2056399;28;20226;-74
2021/07/22 00:46:07;;;;;;;25.73;23.23;;;;;;;16.60;nan;99541.81;2056508;28;20468;-74
2021/07/22 00:47:08;;;;;;;25.43;22.90;;;;;;;16.59;nan;99534.88;2056021;28;20660;-74
2021/07/22 00:48:09;;;;;;;25.90;23.65;;;;;;;16.61;nan;99534.53;2056443;28;20326;-73
2021/07/22 00:49:13;;;;;;;25.43;23.13;;;;;;;16.60;nan;99535.66;2064378;28;20228;-73
2021/07/22 00:50:14;;;;;;;24.37;22.27;;;;;;;16.60;nan;99531.06;2063978;28;20593;-73
2021/07/22 00:51:15;;;;;;;24.67;22.63;;;;;;;16.61;nan;99527.25;2064412;28;20456;-73
2021/07/22 00:52:16;;;;;;;26.90;24.13;;;;;;;16.61;nan;99535.31;2064160;28;20243;-73
2021/07/22 00:53:19;;;;;;;26.73;24.20;;;;;;;16.60;nan;99539.13;2064487;28;20226;-72
2021/07/22 00:54:23;;;;;;;26.57;24.13;;;;;;;16.62;nan;99533.41;2064061;28;20229;-72
2021/07/22 00:55:28;;;;;;;27.40;24.92;;;;;;;16.60;nan;99536.44;2064464;28;20487;-73
2021/07/22 00:56:29;;;;;;;27.77;25.27;;;;;;;16.60;nan;99532.97;2073225;28;20277;-74
2021/07/22 00:57:31;;;;;;;27.98;25.50;;;;;;;16.59;nan;99537.56;2072354;28;20219;-73
2021/07/22 00:58:32;;;;;;;27.40;24.63;;;;;;;16.58;nan;99535.94;2064363;28;20584;-74
2021/07/22 00:59:34;;;;;;;26.87;23.97;;;;;;;16.57;nan;99533.59;2056299;28;20217;-73
2021/07/22 01:00:35;;;;;;;26.35;24.02;;;;;;;16.57;nan;99530.88;2056213;28;20572;-73
2021/07/22 01:01:36;;;;;;;28.27;25.77;;;;;;;16.57;nan;99538.97;2064335;28;20315;-73
2021/07/22 01:02:37;;;;;;;27.10;24.50;;;;;;;16.54;nan;99537.72;2063833;28;20228;-72
2021/07/22 01:03:39;;;;;;;26.17;23.77;;;;;;;16.54;nan;99539.63;2056205;28;20229;-72
2021/07/22 01:04:41;;;;;;;27.17;24.45;;;;;;;16.53;nan;99538.06;2056203;28;20230;-72
2021/07/22 01:05:43;;;;;;;27.45;24.77;;;;;;;16.50;nan;99536.78;2064367;28;20587;-72
2021/07/22 01:06:44;;;;;;;27.40;25.00;;;;;;;16.50;nan;99541.38;2064141;28;20229;-73
2021/07/22 01:07:51;;;;;;;27.23;24.80;;;;;;;16.47;nan;99539.34;2064431;28;20253;-74
2021/07/22 01:08:52;;;;;;;28.15;25.55;;;;;;;16.48;nan;99532.84;2064196;28;20228;-74
2021/07/22 01:10:02;;;;;;;28.42;24.88;;;;;;;16.45;nan;99536.97;2071973;28;20286;-73
2021/07/22 01:11:03;;;;;;;28.58;24.65;;;;;;;16.45;nan;99538.88;2064355;28;20247;-72
2021/07/22 01:12:05;;;;;;;28.58;25.77;;;;;;;16.43;nan;99547.28;2064247;28;20232;-73
2021/07/22 01:13:06;;;;;;;27.17;24.58;;;;;;;16.41;nan;99533.31;2064284;28;20563;-73
2021/07/22 01:14:08;;;;;;;28.93;26.23;;;;;;;16.43;nan;99541.09;2063694;28;20313;-73
2021/07/22 01:15:10;;;;;;;28.67;25.70;;;;;;;16.42;nan;99543.00;2072942;28;20546;-73
2021/07/22 01:16:12;;;;;;;27.60;25.20;;;;;;;16.42;nan;99539.50;2064105;28;20229;-74
2021/07/22 01:17:21;;;;;;;29.30;26.40;;;;;;;16.42;nan;99540.31;2056356;28;20228;-73
2021/07/22 01:18:23;;;;;;;27.48;24.98;;;;;;;16.42;nan;99539.50;2063616;28;20232;-73
2021/07/22 01:19:24;;;;;;;27.90;25.23;;;;;;;16.39;nan;99538.25;2064071;28;20256;-73
2021/07/22 01:20:29;;;;;;;29.60;26.27;;;;;;;16.38;nan;99544.75;2056151;28;20705;-73
2021/07/22 01:21:33;;;;;;;28.40;25.83;;;;;;;16.37;nan;99541.28;2064229;28;20231;-74
2021/07/22 01:22:38;;;;;;;29.17;26.20;;;;;;;16.34;nan;99544.63;2056006;28;20229;-73
2021/07/22 01:23:41;;;;;;;28.17;25.50;;;;;;;16.35;nan;99538.13;2056486;28;20312;-74
2021/07/22 01:25:22;;;;;;;30.45;27.38;;;;;;;16.31;nan;99534.47;2058865;28;20588;-73
2021/07/22 01:26:25;;;;;;;30.03;27.00;;;;;;;16.32;nan;99540.66;2063771;28;20312;-73
2021/07/22 01:27:30;;;;;;;28.88;25.90;;;;;;;16.32;nan;99544.13;2064134;28;20452;-73
2021/07/22 01:28:37;;;;;;;29.33;26.23;;;;;;;16.31;nan;99542.56;2063640;28;20224;-74
2021/07/22 01:29:39;;;;;;;30.13;26.30;;;;;;;16.31;nan;99545.25;2063995;28;20468;-73
2021/07/22 01:30:40;;;;;;;29.53;26.50;;;;;;;16.30;nan;99540.19;2064135;28;20620;-73
2021/07/22 01:31:42;;;;;;;29.15;26.45;;;;;;;16.28;nan;99542.41;2063992;28;20814;-73
2021/07/22 01:32:43;;;;;;;30.23;27.30;;;;;;;16.29;nan;99535.91;2064177;28;20228;-74
2021/07/22 01:33:45;;;;;;;29.43;26.27;;;;;;;16.28;nan;99540.50;2072723;28;20228;-73
2021/07/22 01:34:45;;;;;;;29.98;27.17;;;;;;;16.27;nan;99547.00;2064084;28;20304;-73
2021/07/22 01:35:52;;;;;;;29.65;26.85;;;;;;;16.26;nan;99542.75;2063950;28;20231;-73
2021/07/22 01:36:56;;;;;;;30.35;27.23;;;;;;;16.27;nan;99535.44;2064336;28;20279;-73
2021/07/22 01:37:57;;;;;;;30.83;27.80;;;;;;;16.25;nan;99543.84;2064053;28;20232;-73
2021/07/22 01:39:02;;;;;;;30.20;27.13;;;;;;;16.24;nan;99542.25;2064060;28;20290;-73
2021/07/22 01:40:05;;;;;;;30.42;27.40;;;;;;;16.25;nan;99541.16;2064311;28;20232;-73
2021/07/22 01:41:07;;;;;;;29.80;26.70;;;;;;;16.24;nan;99538.78;2064017;28;20683;-73
2021/07/22 01:42:08;;;;;;;33.25;26.83;;;;;;;16.24;nan;99544.16;2063635;28;20224;-73
2021/07/22 01:43:10;;;;;;;29.40;26.50;;;;;;;16.21;nan;99540.22;2063824;28;20239;-73
2021/07/22 01:44:21;;;;;;;31.55;27.58;;;;;;;16.23;nan;99534.50;2057099;28;20349;-73
2021/07/22 01:45:23;;;;;;;30.42;27.15;;;;;;;16.24;nan;99533.38;2063605;28;20637;-73
2021/07/22 01:46:24;;;;;;;30.13;26.85;;;;;;;16.22;nan;99539.09;2072068;28;20224;-73
2021/07/22 01:47:26;;;;;;;30.57;27.03;;;;;;;16.20;nan;99538.63;2063912;28;20312;-73
2021/07/22 01:48:28;;;;;;;29.70;26.52;;;;;;;16.18;nan;99530.09;2064302;28;20220;-73
2021/07/22 01:49:30;;;;;;;29.13;26.23;;;;;;;16.16;nan;99532.31;2063898;28;20252;-73
2021/07/22 01:50:34;;;;;;;29.60;26.42;;;;;;;16.18;nan;99542.78;2055475;28;20225;-73
2021/07/22 01:51:36;;;;;;;30.17;26.75;;;;;;;16.16;nan;99540.41;2063896;28;20328;-73
2021/07/22 01:52:41;;;;;;;29.52;26.63;;;;;;;16.15;nan;99544.19;2063610;28;20229;-73
2021/07/22 01:53:44;;;;;;;30.85;26.88;;;;;;;16.16;nan;99543.09;2063891;28;20261;-73
2021/07/22 01:54:47;;;;;;;28.90;25.80;;;;;;;16.14;nan;99539.13;2063806;28;20232;-73
2021/07/22 01:55:50;;;;;;;37.70;27.27;;;;;;;16.14;nan;99547.19;2063918;28;20237;-73
2021/07/22 01:56:52;;;;;;;29.40;26.10;;;;;;;16.13;nan;99541.03;2063964;28;20308;-73
2021/07/22 01:57:55;;;;;;;30.00;26.63;;;;;;;16.15;nan;99546.09;2072187;28;20623;-73
2021/07/22 01:58:59;;;;;;;29.05;26.10;;;;;;;16.14;nan;99536.44;2063773;28;20751;-73
2021/07/22 02:00:05;;;;;;;29.25;26.45;;;;;;;16.12;nan;99539.44;2056107;28;20225;-73
2021/07/22 02:01:07;;;;;;;28.25;25.52;;;;;;;16.12;nan;99542.13;2064118;28;20229;-73
2021/07/22 02:02:10;;;;;;;31.08;26.83;;;;;;;16.12;nan;99534.06;2063808;28;20290;-73
2021/07/22 02:03:11;;;;;;;33.72;26.63;;;;;;;16.11;nan;99537.88;2063690;28;20597;-73
2021/07/22 02:04:33;;;;;;;28.30;25.65;;;;;;;16.10;nan;99533.59;2066312;28;20223;-73
2021/07/22 02:05:34;;;;;;;29.42;25.70;;;;;;;16.10;nan;99545.16;2072651;28;20227;-73
2021/07/22 02:06:38;;;;;;;28.52;25.42;;;;;;;16.08;nan;99539.31;2071850;28;20220;-73
2021/07/22 02:07:44;;;;;;;28.58;25.92;;;;;;;16.10;nan;99542.47;2063390;28;20597;-73
2021/07/22 02:08:48;;;;;;;28.33;25.40;;;;;;;16.10;nan;99539.78;2055830;28;20272;-73
2021/07/22 02:09:50;;;;;;;28.83;25.93;;;;;;;16.14;nan;99539.13;2055691;28;20280;-73
2021/07/22 02:10:53;;;;;;;29.92;26.92;;;;;;;16.10;nan;99533.59;2055699;28;20233;-73
2021/07/22 02:11:57;;;;;;;31.77;25.75;;;;;;;16.10;nan;99541.69;2055956;28;20232;-73
2021/07/22 02:12:58;;;;;;;27.80;25.10;;;;;;;16.10;nan;99544.38;2063855;28;20225;-73
2021/07/22 02:14:09;;;;;;;28.83;25.88;;;;;;;16.09;nan;99537.41;2063366;28;20468;-73
2021/07/22 02:15:10;;;;;;;28.55;26.00;;;;;;;16.09;nan;99543.56;2063651;28;20236;-73
2021/07/22 02:16:15;;;;;;;26.77;24.17;;;;;;;16.08;nan;99542.00;2063621;28;20244;-73
2021/07/22 02:17:19;;;;;;;28.15;25.35;;;;;;;16.07;nan;99545.00;2064194;28;20644;-73
2021/07/22 02:18:22;;;;;;;28.92;25.88;;;;;;;16.06;nan;99543.41;2071873;28;20228;-73
2021/07/22 02:19:24;;;;;;;28.73;25.75;;;;;;;16.06;nan;99538.03;2071332;28;20263;-73
2021/07/22 02:20:32;;;;;;;28.45;25.65;;;;;;;16.09;nan;99537.41;2063532;28;20221;-73
2021/07/22 02:21:37;;;;;;;28.30;25.38;;;;;;;16.07;nan;99539.59;2063931;28;20220;-73
2021/07/22 02:22:39;;;;;;;30.58;26.38;;;;;;;16.06;nan;99538.81;2071097;28;20717;-73
2021/07/22 02:24:15;;;;;;;28.10;24.88;;;;;;;16.05;nan;99552.59;2071330;28;20231;-73
2021/07/22 02:25:37;;;;;;;29.42;26.33;;;;;;;16.03;nan;99546.75;2062971;28;20216;-73
2021/07/22 02:26:38;;;;;;;33.10;25.58;;;;;;;16.04;nan;99551.81;2061467;28;20224;-73
2021/07/22 02:27:40;;;;;;;27.07;24.57;;;;;;;16.07;nan;99547.69;2063564;28;20235;-73
2021/07/22 02:28:41;;;;;;;28.88;26.05;;;;;;;16.06;nan;99546.88;2063787;28;20495;-73
2021/07/22 02:29:43;;;;;;;28.52;25.55;;;;;;;16.05;nan;99545.31;2063342;28;20232;-73
2021/07/22 02:30:44;;;;;;;29.55;26.42;;;;;;;16.06;nan;99540.72;2055514;28;20229;-73
2021/07/22 02:31:46;;;;;;;30.17;27.37;;;;;;;16.03;nan;99544.06;2063661;28;20316;-73
2021/07/22 02:32:49;;;;;;;29.77;26.73;;;;;;;16.06;nan;99556.88;2063712;28;20699;-73
2021/07/22 02:33:50;;;;;;;30.23;27.20;;;;;;;16.03;nan;99544.84;2063538;28;20625;-74
2021/07/22 02:34:51;;;;;;;31.05;27.33;;;;;;;16.08;nan;99549.28;2063246;28;20231;-73
2021/07/22 02:36:32;;;;;;;32.38;26.17;;;;;;;16.04;nan;99551.81;2033845;29;20234;-73
2021/07/22 02:37:58;;;;;;;28.05;25.38;;;;;;;16.02;nan;99554.03;2030673;29;20235;-73
2021/07/22 02:39:01;;;;;;;27.88;25.20;;;;;;;16.00;nan;99550.09;2031527;29;20234;-73
2021/07/22 02:40:04;;;;;;;30.73;26.13;;;;;;;15.99;nan;99553.91;2031562;29;20314;-74
2021/07/22 02:41:07;;;;;;;29.08;25.88;;;;;;;15.99;nan;99551.22;2023363;29;20239;-73
2021/07/22 02:42:09;;;;;;;28.77;25.75;;;;;;;15.98;nan;99553.09;2045607;28;20235;-73
2021/07/22 02:43:11;;;;;;;28.67;25.77;;;;;;;15.97;nan;99551.50;2063573;28;20228;-73
2021/07/22 02:44:13;;;;;;;29.05;26.13;;;;;;;15.96;nan;99554.53;2063568;28;20311;-73
2021/07/22 02:45:18;;;;;;;29.67;26.90;;;;;;;15.96;nan;99558.00;2063479;28;20303;-73
2021/07/22 02:46:20;;;;;;;32.17;27.53;;;;;;;15.95;nan;99555.63;2055384;28;20232;-73
2021/07/22 02:47:32;;;;;;;32.65;27.17;;;;;;;15.93;nan;99564.03;2064990;28;20792;-73
2021/07/22 02:48:34;;;;;;;30.08;27.08;;;;;;;15.93;nan;99555.16;2071532;28;20294;-73
2021/07/22 02:49:35;;;;;;;31.88;28.45;;;;;;;15.92;nan;99558.97;2063464;28;20252;-73
2021/07/22 02:50:36;;;;;;;31.13;27.93;;;;;;;15.91;nan;99560.09;2063548;28;20231;-74
2021/07/22 02:51:41;;;;;;;31.05;27.90;;;;;;;15.91;nan;99560.09;2063523;28;20232;-73
2021/07/22 02:52:45;;;;;;;29.95;27.13;;;;;;;15.91;nan;99557.41;2063356;28;20246;-73
2021/07/22 02:53:47;;;;;;;32.22;27.83;;;;;;;15.93;nan;99565.94;2063583;28;20231;-73
2021/07/22 02:54:57;;;;;;;30.30;27.48;;;;;;;15.91;nan;99562.78;2071820;28;20679;-73
2021/07/22 02:55:59;;;;;;;31.73;28.20;;;;;;;15.89;nan;99559.59;2063287;28;20232;-73
2021/07/22 02:57:02;;;;;;;30.20;27.42;;;;;;;15.90;nan;99569.25;2063708;28;20272;-74
2021/07/22 02:58:05;;;;;;;30.13;27.17;;;;;;;15.87;nan;99559.91;2063434;28;20304;-73
2021/07/22 02:59:09;;;;;;;30.88;27.70;;;;;;;15.85;nan;99558.66;2062975;28;20220;-73
2021/07/22 03:00:14;;;;;;;30.95;28.02;;;;;;;15.90;nan;99561.16;2063853;28;20679;-73
2021/07/22 03:01:18;;;;;;;32.20;28.88;;;;;;;15.87;nan;99556.44;2063284;28;20308;-73
2021/07/22 03:02:19;;;;;;;31.58;28.00;;;;;;;15.86;nan;99561.03;2062876;28;20225;-74
2021/07/22 03:03:21;;;;;;;30.25;27.30;;;;;;;15.88;nan;99571.47;2063463;28;20675;-74
2021/07/22 03:04:22;;;;;;;32.88;27.75;;;;;;;15.89;nan;99564.97;2062712;28;20715;-74
2021/07/22 03:05:47;;;;;;;31.33;27.27;;;;;;;15.85;nan;99564.03;2063375;28;20227;-73
2021/07/22 03:06:48;;;;;;;31.17;27.95;;;;;;;15.84;nan;99565.94;2063297;28;20283;-73
2021/07/22 03:07:51;;;;;;;30.40;27.50;;;;;;;15.83;nan;99572.44;2063544;28;20315;-73
2021/07/22 03:08:53;;;;;;;31.27;27.92;;;;;;;15.82;nan;99571.66;2063077;28;20236;-74
2021/07/22 03:09:57;;;;;;;30.48;27.17;;;;;;;15.84;nan;99568.63;2063293;28;20274;-73
2021/07/22 03:10:59;;;;;;;32.28;28.90;;;;;;;15.82;nan;99555.50;2062974;28;20249;-73
2021/07/22 03:12:03;;;;;;;31.10;27.83;;;;;;;15.82;nan;99568.16;2063471;28;20696;-73
2021/07/22 03:13:11;;;;;;;33.88;28.13;;;;;;;15.82;nan;99568.16;2056083;28;20233;-73
2021/07/22 03:14:15;;;;;;;30.60;27.73;;;;;;;15.80;nan;99573.84;2063396;28;20224;-73
2021/07/22 03:15:18;;;;;;;29.75;26.80;;;;;;;15.80;nan;99568.47;2063565;28;20224;-73
2021/07/22 03:16:23;;;;;;;29.95;27.00;;;;;;;15.81;nan;99559.31;2071247;28;20283;-73
2021/07/22 03:17:46;;;;;;;32.65;28.33;;;;;;;15.80;nan;99559.59;2071130;28;20629;-74
2021/07/22 03:18:47;;;;;;;30.15;27.00;;;;;;;15.79;nan;99556.13;2063453;28;20307;-73
2021/07/22 03:19:49;;;;;;;31.03;27.73;;;;;;;15.78;nan;99559.91;2055304;28;20229;-73
2021/07/22 03:20:51;;;;;;;35.13;27.92;;;;;;;15.78;nan;99559.13;2063380;28;20228;-73
2021/07/22 03:21:53;;;;;;;30.30;27.13;;;;;;;15.78;nan;99554.53;2063400;28;20236;-74
2021/07/22 03:23:14;;;;;;;32.75;27.92;;;;;;;15.88;nan;99558.00;2065619;28;20467;-73
2021/07/22 03:24:25;;;;;;;31.10;26.80;;;;;;;15.86;nan;99552.94;2063100;28;20235;-73
2021/07/22 03:25:27;;;;;;;30.92;26.95;;;;;;;15.83;nan;99558.97;2055521;28;20303;-75
2021/07/22 03:26:53;;;;;;;36.55;26.95;;;;;;;15.79;nan;99555.31;2066343;28;20228;-74
2021/07/22 03:27:59;;;;;;;34.35;27.55;;;;;;;15.78;nan;99557.22;2063383;28;20228;-73
2021/07/22 03:29:10;;;;;;;30.25;27.35;;;;;;;15.78;nan;99551.84;2056620;28;20252;-74
2021/07/22 03:30:13;;;;;;;29.40;26.42;;;;;;;15.78;nan;99559.13;2063459;28;20236;-73
2021/07/22 03:31:21;;;;;;;31.13;27.48;;;;;;;15.76;nan;99559.44;2063319;28;20232;-73
2021/07/22 03:32:41;;;;;;;29.58;26.50;;;;;;;15.76;nan;99564.03;2065275;28;20287;-73
2021/07/22 03:33:45;;;;;;;30.80;26.98;;;;;;;15.77;nan;99565.63;2071416;28;20224;-74
2021/07/22 03:34:55;;;;;;;32.53;27.65;;;;;;;15.77;nan;99560.25;2062909;28;20744;-74
2021/07/22 03:36:10;;;;;;;31.50;27.15;;;;;;;15.81;nan;99563.88;2056712;28;20231;-73
2021/07/22 03:37:14;;;;;;;30.95;27.80;;;;;;;15.82;nan;99566.25;2055787;28;20302;-74
2021/07/22 03:38:17;;;;;;;31.33;27.73;;;;;;;15.81;nan;99561.19;2063220;28;20275;-74
2021/07/22 03:39:40;;;;;;;31.63;28.15;;;;;;;15.81;nan;99564.69;2065389;28;20228;-74
2021/07/22 03:40:41;;;;;;;30.35;27.30;;;;;;;15.79;nan;99561.50;2071996;28;20718;-73
2021/07/22 03:41:47;;;;;;;32.40;27.70;;;;;;;15.80;nan;99560.38;2063515;28;20240;-73
2021/07/22 03:42:57;;;;;;;29.85;26.80;;;;;;;15.83;nan;99567.06;2062863;28;20238;-74
2021/07/22 03:44:06;;;;;;;30.80;27.45;;;;;;;15.85;nan;99564.03;2063243;28;20225;-73
2021/07/22 03:45:08;;;;;;;30.80;27.53;;;;;;;15.85;nan;99558.66;2054911;28;20229;-74
2021/07/22 03:46:10;;;;;;;30.08;26.75;;;;;;;15.87;nan;99567.19;2063615;28;20228;-74
2021/07/22 03:47:12;;;;;;;30.17;27.17;;;;;;;15.85;nan;99559.44;2063216;28;26986;-73
2021/07/22 03:48:13;;;;;;;31.42;27.85;;;;;;;15.88;nan;99558.00;2063254;28;20236;-74
2021/07/22 03:49:16;;;;;;;30.10;27.08;;;;;;;15.88;nan;99563.41;2063416;28;20224;-73
2021/07/22 03:50:17;;;;;;;31.85;27.35;;;;;;;15.87;nan;99567.19;2063257;28;20220;-74
2021/07/22 03:51:19;;;;;;;30.00;26.80;;;;;;;15.91;nan;99563.56;2063277;28;20225;-74
2021/07/22 03:52:19;;;;;;;34.50;27.45;;;;;;;15.91;nan;99570.84;2062709;28;20285;-73
2021/07/22 03:53:27;;;;;;;30.65;26.67;;;;;;;15.93;nan;99563.25;2055569;28;20239;-73
2021/07/22 03:54:30;;;;;;;32.08;26.65;;;;;;;15.95;nan;99563.69;2063388;28;20236;-74
2021/07/22 03:55:34;;;;;;;29.65;26.48;;;;;;;15.93;nan;99565.94;2063166;28;20227;-74
2021/07/22 03:56:53;;;;;;;30.95;26.67;;;;;;;15.94;nan;99567.50;2065290;28;20236;-74
2021/07/22 03:57:59;;;;;;;30.05;26.88;;;;;;;15.96;nan;99576.03;2063159;28;20356;-74
2021/07/22 03:59:02;;;;;;;30.70;27.42;;;;;;;15.96;nan;99565.28;2063373;28;20742;-73
2021/07/22 04:00:13;;;;;;;29.85;26.75;;;;;;;15.98;nan;99568.44;2055815;28;20284;-74
2021/07/22 04:01:17;;;;;;;29.55;26.33;;;;;;;16.00;nan;99566.25;2064043;28;20248;-74
2021/07/22 04:02:19;;;;;;;30.52;26.85;;;;;;;16.02;nan;99574.78;2063224;28;20587;-74
2021/07/22 04:03:21;;;;;;;29.30;26.30;;;;;;;16.04;nan;99567.97;2063010;28;20631;-73
2021/07/22 04:04:23;;;;;;;30.73;26.63;;;;;;;16.03;nan;99565.59;2071369;28;20228;-73
2021/07/22 04:05:27;;;;;;;29.80;26.70;;;;;;;16.03;nan;99560.22;2071903;28;20235;-73
2021/07/22 04:06:29;;;;;;;28.60;25.65;;;;;;;16.06;nan;99565.72;2071260;28;20307;-74
2021/07/22 04:07:30;;;;;;;30.20;27.25;;;;;;;16.08;nan;99566.22;2063250;28;20249;-73
2021/07/22 04:08:53;;;;;;;31.08;26.63;;;;;;;16.06;nan;99565.72;2065648;28;20586;-73
2021/07/22 04:10:14;;;;;;;30.52;26.88;;;;;;;16.05;nan;99564.16;2060838;28;20277;-73
2021/07/22 04:11:45;;;;;;;29.70;26.42;;;;;;;16.07;nan;99567.34;2062667;28;20227;-73
2021/07/22 04:12:58;;;;;;;29.40;26.27;;;;;;;16.08;nan;99562.75;2056456;28;20699;-73
2021/07/22 04:14:14;;;;;;;30.98;26.75;;;;;;;16.08;nan;99565.44;2057910;28;20252;-73
2021/07/22 04:15:54;;;;;;;29.02;26.10;;;;;;;16.11;nan;99562.09;2059807;28;20245;-73
2021/07/22 04:17:17;;;;;;;31.65;26.67;;;;;;;16.13;nan;99559.06;2072812;28;20583;-73
2021/07/22 04:18:39;;;;;;;29.98;26.20;;;;;;;16.15;nan;99556.84;2072204;28;20315;-74
2021/07/22 04:20:00;;;;;;;28.55;25.60;;;;;;;16.19;nan;99563.97;2040022;29;20218;-73
2021/07/22 04:21:34;;;;;;;30.73;26.52;;;;;;;16.25;nan;99568.09;2056122;28;20224;-74
2021/07/22 04:22:58;;;;;;;28.90;26.10;;;;;;;16.25;nan;99562.72;2063682;28;20265;-74
2021/07/22 04:24:19;;;;;;;29.27;26.30;;;;;;;16.28;nan;99556.66;2066906;28;20490;-74
2021/07/22 04:25:39;;;;;;;29.75;26.65;;;;;;;16.26;nan;99556.22;2072228;28;20701;-73
2021/07/22 04:27:01;;;;;;;30.10;27.08;;;;;;;16.27;nan;99557.78;2071783;28;20224;-73
2021/07/22 04:28:19;;;;;;;29.38;26.45;;;;;;;16.32;nan;99562.19;2063772;28;20233;-73
2021/07/22 04:29:21;;;;;;;30.00;26.55;;;;;;;16.33;nan;99559.19;2064127;28;20224;-73
2021/07/22 04:30:24;;;;;;;32.08;26.02;;;;;;;16.36;nan;99561.25;2055812;28;20221;-73
2021/07/22 04:31:58;;;;;;;28.77;25.23;;;;;;;16.37;nan;99560.13;2058124;28;20667;-73
2021/07/22 04:33:12;;;;;;;28.73;25.63;;;;;;;16.39;nan;99557.91;2063718;28;20232;-74
2021/07/22 04:34:34;;;;;;;33.25;25.67;;;;;;;16.43;nan;99554.56;2053106;28;20732;-74
2021/07/22 04:35:56;;;;;;;28.50;25.50;;;;;;;16.44;nan;99559.63;2072280;28;20231;-73
2021/07/22 04:37:13;;;;;;;29.40;26.23;;;;;;;16.49;nan;99553.25;2071695;28;20286;-74
2021/07/22 04:38:26;;;;;;;28.40;25.42;;;;;;;16.53;nan;99556.91;2063630;28;20224;-74
2021/07/22 04:39:57;;;;;;;28.58;25.58;;;;;;;16.58;nan;99562.09;2047247;28;20625;-73
2021/07/22 04:41:23;;;;;;;29.80;24.08;;;;;;;16.58;nan;99562.88;2051726;28;20225;-73
2021/07/22 04:42:42;;;;;;;28.52;24.45;;;;;;;16.63;nan;99557.34;2066262;28;20224;-74
2021/07/22 04:44:16;;;;;;;32.05;23.70;;;;;;;16.67;nan;99568.25;2023705;29;20303;-74
2021/07/22 04:45:35;;;;;;;27.23;24.35;;;;;;;16.67;nan;99562.84;2072415;28;20243;-73
2021/07/22 04:46:48;;;;;;;28.40;25.50;;;;;;;16.68;nan;99564.47;2063723;28;20220;-74
2021/07/22 04:48:13;;;;;;;33.17;26.02;;;;;;;16.66;nan;99558.59;2050203;28;20618;-74
2021/07/22 04:49:26;;;;;;;28.52;25.73;;;;;;;16.67;nan;99568.25;2072320;28;20277;-74
2021/07/22 04:50:42;;;;;;;28.75;25.83;;;;;;;16.72;nan;99562.72;2071582;28;20266;-74
2021/07/22 04:51:56;;;;;;;28.40;25.60;;;;;;;16.71;nan;99569.22;2063515;28;20255;-74
2021/07/22 04:53:03;;;;;;;29.17;25.98;;;;;;;16.71;nan;99573.81;2064969;28;20228;-74
2021/07/22 04:54:15;;;;;;;28.60;25.80;;;;;;;16.77;nan;99567.94;2063631;28;20308;-73
2021/07/22 04:55:17;;;;;;;30.30;26.67;;;;;;;16.76;nan;99571.72;2064263;28;20579;-73
2021/07/22 04:56:19;;;;;;;28.35;25.52;;;;;;;16.77;nan;99567.94;2063760;28;20308;-74
2021/07/22 04:57:21;;;;;;;29.70;25.33;;;;;;;16.82;nan;99562.34;2064033;28;20227;-73
2021/07/22 04:58:23;;;;;;;29.42;25.70;;;;;;;16.83;nan;99565.81;2063508;28;20685;-73
2021/07/22 04:59:27;;;;;;;28.30;25.27;;;;;;;16.87;nan;99570.25;2064197;28;20227;-74
2021/07/22 05:00:28;;;;;;;29.50;26.08;;;;;;;16.90;nan;99576.91;2063977;28;20221;-74
2021/07/22 05:01:33;;;;;;;30.73;25.52;;;;;;;16.95;nan;99571.34;2063813;28;20267;-74
2021/07/22 05:02:33;;;;;;;28.13;25.10;;;;;;;16.98;nan;99573.38;2063917;28;20695;-74
2021/07/22 05:03:36;;;;;;;28.50;25.58;;;;;;;17.00;nan;99575.72;2063775;28;20690;-74
2021/07/22 05:04:36;;;;;;;29.08;25.95;;;;;;;17.07;nan;99570.63;2055519;28;20233;-73
2021/07/22 05:05:39;;;;;;;29.52;26.33;;;;;;;17.09;nan;99579.16;2063877;28;20228;-74
2021/07/22 05:06:58;;;;;;;30.23;25.90;;;;;;;17.16;nan;99584.84;2072436;28;20215;-74
2021/07/22 05:08:13;;;;;;;32.80;26.10;;;;;;;17.21;nan;99571.19;2071444;28;20230;-74
2021/07/22 05:09:28;;;;;;;37.00;27.07;;;;;;;17.25;nan;99574.78;2063364;28;20440;-74
2021/07/22 05:10:48;;;;;;;32.67;25.83;;;;;;;17.29;nan;99577.59;2066170;28;21009;-74
2021/07/22 05:11:52;;;;;;;32.20;26.75;;;;;;;17.33;nan;99579.34;2071494;28;20455;-74
2021/07/22 05:13:12;;;;;;;32.42;26.63;;;;;;;17.26;nan;99573.66;2063500;28;20689;-74